createdAt,value
2023-05-14T00:01:47.235Z,8.75
2023-05-14T00:04:19.595Z,9.08
2023-05-14T00:06:51.129Z,10.03
2023-05-14T00:09:22.623Z,8.85
2023-05-14T00:11:54.009Z,10.45
2023-05-14T00:14:25.503Z,9.25
2023-05-14T00:16:56.986Z,8.85
2023-05-14T00:19:28.478Z,10.32
2023-05-14T00:21:59.872Z,9.33
2023-05-14T00:24:31.453Z,9.38
2023-05-14T00:27:03.066Z,9.90
2023-05-14T00:29:34.579Z,8.63
2023-05-14T00:32:07.066Z,9.45
2023-05-14T00:34:38.617Z,8.73
2023-05-14T00:37:10.215Z,8.75
2023-05-14T00:39:41.772Z,9.43
2023-05-14T00:42:13.272Z,9.55
2023-05-14T00:44:44.881Z,10.23
2023-05-14T00:47:16.627Z,7.35
2023-05-14T00:49:48.243Z,7.58
2023-05-14T00:52:21.317Z,8.38
2023-05-14T00:54:52.968Z,8.18
2023-05-14T00:57:24.422Z,8.38
2023-05-14T00:59:56.550Z,8.48
2023-05-14T01:02:28.262Z,8.88
2023-05-14T01:04:59.784Z,10.08
2023-05-14T01:07:35.523Z,9.05
2023-05-14T01:10:11.790Z,9.75
2023-05-14T01:12:46.909Z,9.18
2023-05-14T01:15:22.794Z,11.25
2023-05-14T01:17:57.875Z,9.75
2023-05-14T01:20:30.346Z,10.13
2023-05-14T01:23:01.834Z,10.32
2023-05-14T01:25:33.840Z,9.93
2023-05-14T01:28:09.651Z,9.48
2023-05-14T01:30:44.351Z,10.58
2023-05-14T01:33:19.101Z,11.45
2023-05-14T01:35:52.446Z,11.85
2023-05-14T01:38:24.199Z,12.47
2023-05-14T01:40:57.444Z,10.00
2023-05-14T01:43:29.628Z,10.90
2023-05-14T01:46:01.434Z,11.22
2023-05-14T01:48:33.518Z,11.05
2023-05-14T01:51:05.290Z,11.60
2023-05-14T01:53:36.884Z,12.50
2023-05-14T01:56:08.869Z,13.13
2023-05-14T01:58:40.437Z,17.15
2023-05-14T02:01:12.066Z,14.07
2023-05-14T02:03:43.787Z,12.68
2023-05-14T02:06:15.472Z,12.73
2023-05-14T02:08:46.964Z,14.23
2023-05-14T02:11:18.440Z,15.15
2023-05-14T02:13:50.033Z,14.28
2023-05-14T02:16:22.725Z,14.28
2023-05-14T02:18:54.274Z,15.93
2023-05-14T02:21:26.332Z,14.75
2023-05-14T02:23:57.906Z,14.90
2023-05-14T02:26:29.546Z,13.40
2023-05-14T02:29:01.239Z,12.98
2023-05-14T02:31:32.825Z,13.88
2023-05-14T02:34:06.719Z,12.58
2023-05-14T02:36:38.393Z,13.40
2023-05-14T02:39:10.069Z,13.00
2023-05-14T02:41:41.696Z,13.70
2023-05-14T02:44:13.279Z,12.47
2023-05-14T02:46:44.986Z,14.43
2023-05-14T02:49:16.634Z,13.15
2023-05-14T02:51:48.055Z,12.73
2023-05-14T02:54:19.832Z,14.53
2023-05-14T02:56:51.302Z,12.98
2023-05-14T02:59:24.344Z,15.40
2023-05-14T03:01:56.752Z,15.98
2023-05-14T03:04:28.848Z,14.47
2023-05-14T03:07:00.590Z,14.38
2023-05-14T03:09:32.069Z,14.65
2023-05-14T03:12:03.636Z,14.40
2023-05-14T03:14:35.058Z,15.72
2023-05-14T03:17:07.391Z,14.05
2023-05-14T03:19:38.927Z,14.90
2023-05-14T03:22:10.587Z,14.05
2023-05-14T03:24:42.509Z,15.55
2023-05-14T03:27:14.140Z,15.18
2023-05-14T03:29:45.644Z,14.65
2023-05-14T03:32:19.125Z,15.63
2023-05-14T03:34:50.608Z,15.90
2023-05-14T03:37:22.195Z,17.60
2023-05-14T03:39:55.340Z,13.68
2023-05-14T03:42:27.183Z,14.25
2023-05-14T03:44:58.672Z,15.65
2023-05-14T03:47:30.302Z,16.93
2023-05-14T03:50:01.819Z,14.20
2023-05-14T03:52:33.664Z,16.70
2023-05-14T03:55:05.578Z,16.40
2023-05-14T03:57:37.360Z,13.60
2023-05-14T04:00:11.829Z,13.78
2023-05-14T04:02:45.073Z,13.38
2023-05-14T04:05:16.586Z,14.58
2023-05-14T04:07:49.398Z,14.15
2023-05-14T04:10:22.853Z,14.23
2023-05-14T04:12:56.105Z,14.73
2023-05-14T04:15:27.811Z,13.93
2023-05-14T04:17:59.547Z,14.15
2023-05-14T04:20:30.923Z,14.73
2023-05-14T04:23:02.717Z,15.18
2023-05-14T04:25:34.556Z,15.32
2023-05-14T04:28:06.417Z,15.43
2023-05-14T04:30:37.877Z,13.53
2023-05-14T04:33:09.525Z,15.08
2023-05-14T04:35:41.178Z,13.38
2023-05-14T04:38:14.155Z,15.32
2023-05-14T04:40:45.759Z,14.85
2023-05-14T04:43:17.433Z,13.38
2023-05-14T04:45:48.937Z,14.73
2023-05-14T04:48:20.885Z,14.60
2023-05-14T04:50:53.229Z,12.95
2023-05-14T04:53:24.986Z,14.30
2023-05-14T04:55:56.465Z,13.13
2023-05-14T04:58:29.267Z,12.05
2023-05-14T05:01:02.240Z,12.23
2023-05-14T05:03:34.090Z,10.98
2023-05-14T05:06:05.831Z,11.83
2023-05-14T05:08:38.142Z,11.43
2023-05-14T05:11:09.764Z,10.90
2023-05-14T05:13:42.397Z,11.70
2023-05-14T05:16:13.941Z,11.83
2023-05-14T05:18:45.655Z,10.50
2023-05-14T05:21:17.300Z,11.15
2023-05-14T05:23:48.858Z,11.55
2023-05-14T05:26:22.050Z,10.40
2023-05-14T05:28:53.710Z,12.13
2023-05-14T05:31:25.422Z,11.12
2023-05-14T05:33:57.443Z,11.05
2023-05-14T05:36:29.454Z,9.98
2023-05-14T05:39:01.086Z,10.10
2023-05-14T05:41:32.569Z,10.50
2023-05-14T05:44:04.441Z,10.32
2023-05-14T05:46:36.020Z,10.32
2023-05-14T05:49:07.450Z,11.48
2023-05-14T05:51:38.928Z,9.15
2023-05-14T05:54:15.450Z,10.63
2023-05-14T05:56:46.944Z,10.35
2023-05-14T05:59:18.450Z,9.63
2023-05-14T06:02:00.303Z,10.15
2023-05-14T06:07:06.255Z,9.03
2023-05-14T06:09:38.143Z,10.58
2023-05-14T06:12:11.041Z,10.20
2023-05-14T06:14:42.571Z,10.00
2023-05-14T06:17:14.459Z,11.60
2023-05-14T06:19:46.139Z,12.35
2023-05-14T06:22:17.789Z,8.58
2023-05-14T06:24:49.846Z,9.95
2023-05-14T06:27:21.334Z,9.20
2023-05-14T06:29:52.829Z,10.60
2023-05-14T06:32:24.550Z,9.50
2023-05-14T06:34:56.389Z,9.43
2023-05-14T06:37:28.091Z,9.78
2023-05-14T06:39:59.684Z,10.48
2023-05-14T06:42:31.083Z,9.68
2023-05-14T06:45:02.696Z,8.85
2023-05-14T06:47:34.162Z,9.83
2023-05-14T06:52:38.994Z,9.83
2023-05-14T06:55:11.360Z,10.00
2023-05-14T06:57:42.933Z,9.63
2023-05-14T07:00:16.944Z,8.78
2023-05-14T07:02:48.823Z,10.23
2023-05-14T07:05:20.336Z,10.13
2023-05-14T07:07:51.833Z,9.15
2023-05-14T07:10:23.660Z,10.23
2023-05-14T07:12:55.596Z,9.98
2023-05-14T07:15:29.152Z,8.98
2023-05-14T07:18:00.929Z,9.65
2023-05-14T07:20:32.516Z,8.93
2023-05-14T07:23:03.998Z,10.00
2023-05-14T07:25:35.529Z,9.60
2023-05-14T07:28:07.201Z,9.40
2023-05-14T07:30:38.691Z,9.03
2023-05-14T07:33:10.291Z,9.40
2023-05-14T07:35:41.817Z,9.85
2023-05-14T07:38:13.330Z,10.65
2023-05-14T07:40:44.805Z,8.63
2023-05-14T07:43:16.634Z,9.00
2023-05-14T07:45:48.280Z,8.18
2023-05-14T07:48:19.881Z,10.70
2023-05-14T07:50:51.945Z,9.18
2023-05-14T07:53:23.478Z,8.65
2023-05-14T07:55:55.203Z,8.43
2023-05-14T07:58:27.824Z,9.80
2023-05-14T08:01:04.159Z,8.95
2023-05-14T08:03:35.790Z,9.10
2023-05-14T08:06:07.931Z,8.40
2023-05-14T08:08:39.681Z,11.35
2023-05-14T08:11:13.416Z,9.48
2023-05-14T08:13:44.966Z,9.05
2023-05-14T08:16:16.421Z,10.20
2023-05-14T08:18:48.055Z,9.05
2023-05-14T08:21:19.620Z,9.43
2023-05-14T08:23:51.152Z,9.20
2023-05-14T08:26:22.760Z,8.75
2023-05-14T08:28:55.450Z,8.38
2023-05-14T08:31:27.189Z,7.95
2023-05-14T08:33:58.848Z,8.63
2023-05-14T08:36:30.238Z,8.70
2023-05-14T08:39:01.830Z,8.80
2023-05-14T08:41:34.264Z,8.80
2023-05-14T08:44:10.286Z,9.70
2023-05-14T08:46:42.988Z,9.63
2023-05-14T08:49:21.776Z,8.55
2023-05-14T08:51:53.463Z,8.48
2023-05-14T08:54:26.946Z,9.75
2023-05-14T08:56:58.912Z,9.45
2023-05-14T08:59:30.402Z,8.33
2023-05-14T09:02:05.004Z,8.90
2023-05-14T09:04:37.683Z,9.23
2023-05-14T09:07:09.917Z,8.80
2023-05-14T09:09:42.036Z,7.45
2023-05-14T09:12:13.436Z,7.70
2023-05-14T09:14:45.456Z,7.37
2023-05-14T09:17:17.120Z,7.78
2023-05-14T09:19:49.510Z,8.38
2023-05-14T09:22:21.598Z,9.08
2023-05-14T09:25:06.008Z,8.35
2023-05-14T09:27:38.120Z,9.15
2023-05-14T09:30:16.228Z,9.20
2023-05-14T09:32:49.713Z,8.50
2023-05-14T09:35:22.839Z,8.55
2023-05-14T09:37:55.875Z,6.58
2023-05-14T09:40:27.511Z,6.42
2023-05-14T09:43:00.987Z,7.85
2023-05-14T09:45:32.576Z,8.05
2023-05-14T09:48:04.722Z,6.35
2023-05-14T09:50:43.481Z,6.87
2023-05-14T09:53:17.825Z,6.35
2023-05-14T09:55:50.001Z,6.53
2023-05-14T09:58:21.618Z,5.62
2023-05-14T10:00:53.748Z,5.90
2023-05-14T10:03:27.774Z,6.42
2023-05-14T10:06:02.174Z,6.08
2023-05-14T10:08:35.961Z,5.20
2023-05-14T10:11:11.148Z,3.47
2023-05-14T10:13:45.999Z,3.08
2023-05-14T10:16:20.621Z,3.00
2023-05-14T10:18:57.168Z,3.15
2023-05-14T10:21:31.476Z,8.13
2023-05-14T10:24:04.155Z,9.63
2023-05-14T10:26:39.506Z,10.32
2023-05-14T10:29:12.215Z,10.98
2023-05-14T10:31:51.219Z,9.08
2023-05-14T10:34:40.948Z,8.25
2023-05-14T10:37:15.419Z,5.03
2023-05-14T10:39:48.304Z,4.00
2023-05-14T10:42:22.449Z,5.20
2023-05-14T10:44:55.844Z,6.50
2023-05-14T10:47:27.837Z,5.33
2023-05-14T10:50:02.075Z,5.92
2023-05-14T10:52:36.258Z,5.72
2023-05-14T10:55:10.133Z,6.65
2023-05-14T10:57:46.311Z,5.45
2023-05-14T11:00:19.158Z,7.80
2023-05-14T11:02:50.782Z,14.58
2023-05-14T11:05:22.275Z,10.80
2023-05-14T11:07:56.088Z,7.60
2023-05-14T11:10:30.139Z,6.37
2023-05-14T11:13:01.705Z,4.65
2023-05-14T11:15:33.268Z,2.58
2023-05-14T11:18:04.920Z,1.22
2023-05-14T11:20:40.051Z,4.10
2023-05-14T11:23:14.571Z,1.50
2023-05-14T11:25:46.283Z,1.40
2023-05-14T11:28:17.852Z,6.00
2023-05-14T11:30:49.418Z,2.25
2023-05-14T11:33:21.668Z,1.40
2023-05-14T11:35:53.158Z,1.90
2023-05-14T11:38:24.834Z,0.80
2023-05-14T11:40:57.806Z,1.17
2023-05-14T11:43:30.702Z,1.55
2023-05-14T11:46:02.228Z,0.60
2023-05-14T11:48:35.566Z,1.17
2023-05-14T11:51:23.857Z,1.77
2023-05-14T11:53:58.363Z,2.27
2023-05-14T11:56:29.893Z,0.70
2023-05-14T11:59:01.288Z,0.93
2023-05-14T12:01:37.409Z,0.98
2023-05-14T12:04:09.120Z,0.62
2023-05-14T12:06:41.635Z,0.82
2023-05-14T12:09:17.704Z,1.20
2023-05-14T12:11:51.546Z,3.20
2023-05-14T12:14:24.533Z,1.30
2023-05-14T12:16:56.411Z,0.80
2023-05-14T12:19:28.044Z,2.33
2023-05-14T12:22:02.061Z,3.22
2023-05-14T12:24:33.474Z,2.55
2023-05-14T12:27:05.489Z,1.05
2023-05-14T12:29:39.329Z,0.80
2023-05-14T12:32:11.798Z,1.72
2023-05-14T12:34:43.265Z,1.62
2023-05-14T12:37:14.803Z,1.32
2023-05-14T12:39:46.674Z,1.70
2023-05-14T12:42:18.239Z,1.45
2023-05-14T12:44:49.702Z,1.50
2023-05-14T12:47:21.776Z,1.20
2023-05-14T12:49:53.294Z,1.10
2023-05-14T12:52:36.913Z,1.05
2023-05-14T12:55:03.381Z,1.22
2023-05-14T12:57:48.977Z,10.08
2023-05-14T13:00:48.118Z,1.82
2023-05-14T13:03:19.653Z,2.15
2023-05-14T13:05:52.127Z,1.87
2023-05-14T13:08:25.138Z,2.12
2023-05-14T13:10:57.514Z,2.40
2023-05-14T13:13:29.198Z,2.35
2023-05-14T13:16:03.419Z,2.58
2023-05-14T13:18:35.324Z,1.95
2023-05-14T13:21:07.309Z,2.08
2023-05-14T13:23:38.985Z,2.55
2023-05-14T13:26:10.382Z,2.12
2023-05-14T13:28:41.949Z,2.67
2023-05-14T13:31:15.033Z,3.00
2023-05-14T13:33:46.772Z,2.83
2023-05-14T13:36:18.247Z,2.98
2023-05-14T13:38:49.795Z,2.75
2023-05-14T13:41:21.552Z,2.52
2023-05-14T13:43:53.060Z,2.47
2023-05-14T13:46:24.423Z,1.90
2023-05-14T13:48:56.663Z,1.42
2023-05-14T13:51:28.449Z,1.60
2023-05-14T13:53:59.976Z,4.25
2023-05-14T13:56:31.351Z,5.05
2023-05-14T13:59:03.543Z,3.67
2023-05-14T14:01:35.129Z,2.20
2023-05-14T14:04:06.736Z,2.77
2023-05-14T14:06:38.296Z,2.92
2023-05-14T14:09:10.530Z,2.25
2023-05-14T14:11:42.538Z,3.70
2023-05-14T14:14:14.016Z,2.55
2023-05-14T14:16:45.651Z,2.45
2023-05-14T14:19:18.521Z,2.20
2023-05-14T14:24:22.313Z,2.02
2023-05-14T14:26:54.897Z,2.30
2023-05-14T14:29:26.483Z,2.42
2023-05-14T14:31:58.061Z,2.35
2023-05-14T14:34:29.732Z,2.08
2023-05-14T14:37:01.175Z,2.00
2023-05-14T14:39:32.608Z,1.80
2023-05-14T14:42:04.084Z,1.60
2023-05-14T14:44:35.624Z,1.67
2023-05-14T14:47:07.858Z,1.62
2023-05-14T14:49:39.327Z,1.25
2023-05-14T14:52:10.874Z,1.35
2023-05-14T14:54:42.328Z,1.42
2023-05-14T14:57:13.832Z,1.92
2023-05-14T14:59:45.320Z,1.92
2023-05-14T15:02:17.049Z,1.65
2023-05-14T15:04:48.547Z,1.22
2023-05-14T15:07:21.714Z,2.08
2023-05-14T15:10:14.552Z,1.80
2023-05-14T15:12:47.548Z,2.60
2023-05-14T15:15:19.213Z,2.00
2023-05-14T15:17:50.776Z,4.25
2023-05-14T15:20:22.320Z,2.40
2023-05-14T15:22:54.165Z,1.70
2023-05-14T15:25:26.125Z,1.90
2023-05-14T15:27:57.873Z,2.25
2023-05-14T15:30:29.290Z,2.20
2023-05-14T15:33:00.997Z,2.22
2023-05-14T15:35:32.690Z,2.52
2023-05-14T15:38:04.814Z,2.30
2023-05-14T15:40:36.906Z,2.62
2023-05-14T15:43:08.424Z,2.15
2023-05-14T15:45:39.953Z,2.30
2023-05-14T15:48:11.506Z,3.05
2023-05-14T15:50:43.435Z,2.90
2023-05-14T15:53:14.965Z,2.27
2023-05-14T15:55:48.821Z,2.37
2023-05-14T15:58:20.340Z,2.37
2023-05-14T16:00:51.859Z,2.05
2023-05-14T16:03:28.764Z,4.58
2023-05-14T16:06:00.673Z,6.22
2023-05-14T16:08:32.091Z,10.53
2023-05-14T16:11:03.666Z,4.03
2023-05-14T16:13:37.930Z,3.35
2023-05-14T16:16:09.675Z,3.52
2023-05-14T16:18:42.844Z,4.00
2023-05-14T16:21:14.738Z,2.20
2023-05-14T16:23:46.268Z,2.10
2023-05-14T16:26:17.812Z,1.92
2023-05-14T16:28:49.666Z,2.62
2023-05-14T16:31:21.352Z,3.58
2023-05-14T16:33:53.227Z,8.00
2023-05-14T16:36:26.635Z,9.60
2023-05-14T16:39:07.330Z,5.65
2023-05-14T16:41:31.338Z,3.37
2023-05-14T16:44:03.352Z,2.60
2023-05-14T16:46:35.319Z,3.70
2023-05-14T16:49:06.878Z,2.50
2023-05-14T16:51:40.241Z,4.60
2023-05-14T16:54:11.714Z,3.35
2023-05-14T16:56:45.921Z,3.75
2023-05-14T16:59:18.577Z,2.22
2023-05-14T17:01:50.378Z,3.15
2023-05-14T17:06:49.445Z,3.37
2023-05-14T17:09:21.534Z,3.15
2023-05-14T17:11:53.012Z,3.00
2023-05-14T17:14:25.573Z,3.02
2023-05-14T17:16:57.089Z,3.22
2023-05-14T17:19:28.681Z,3.65
2023-05-14T17:22:00.627Z,3.92
2023-05-14T17:24:32.118Z,3.10
2023-05-14T17:27:03.688Z,3.70
2023-05-14T17:29:35.228Z,3.50
2023-05-14T17:32:07.958Z,3.15
2023-05-14T17:34:39.331Z,3.85
2023-05-14T17:37:10.907Z,3.90
2023-05-14T17:39:42.469Z,3.45
2023-05-14T17:42:13.957Z,3.95
2023-05-14T17:44:45.778Z,3.62
2023-05-14T17:47:18.916Z,4.20
2023-05-14T17:49:50.834Z,3.70
2023-05-14T17:52:22.445Z,3.45
2023-05-14T17:54:53.884Z,4.15
2023-05-14T17:57:27.686Z,4.25
2023-05-14T17:59:59.151Z,4.42
2023-05-14T18:02:30.797Z,6.22
2023-05-14T18:05:02.963Z,7.10
2023-05-14T18:07:34.421Z,4.45
2023-05-14T18:10:07.230Z,5.22
2023-05-14T18:12:38.753Z,5.08
2023-05-14T18:15:11.440Z,3.92
2023-05-14T18:17:43.057Z,3.70
2023-05-14T18:20:14.866Z,3.65
2023-05-14T18:22:46.490Z,3.47
2023-05-14T18:25:18.144Z,3.10
2023-05-14T18:27:49.723Z,4.00
2023-05-14T18:30:21.275Z,4.37
2023-05-14T18:32:53.006Z,4.00
2023-05-14T18:35:24.768Z,3.10
2023-05-14T18:37:56.563Z,2.92
2023-05-14T18:40:28.036Z,2.92
2023-05-14T18:42:59.818Z,3.40
2023-05-14T18:45:31.536Z,5.03
2023-05-14T18:48:03.062Z,4.67
2023-05-14T18:50:34.640Z,3.50
2023-05-14T18:53:06.221Z,3.45
2023-05-14T18:55:37.843Z,3.75
2023-05-14T18:58:10.476Z,4.62
2023-05-14T19:00:41.994Z,4.70
2023-05-14T19:03:13.686Z,5.40
2023-05-14T19:05:45.248Z,4.05
2023-05-14T19:08:28.111Z,4.62
2023-05-14T19:10:59.555Z,3.80
2023-05-14T19:13:31.589Z,3.70
2023-05-14T19:16:03.178Z,7.60
2023-05-14T19:18:34.869Z,4.78
2023-05-14T19:21:06.513Z,5.67
2023-05-14T19:23:38.022Z,4.37
2023-05-14T19:26:09.603Z,2.92
2023-05-14T19:28:41.151Z,3.55
2023-05-14T19:31:12.731Z,3.25
2023-05-14T19:33:44.349Z,3.02
2023-05-14T19:36:15.952Z,3.20
2023-05-14T19:38:47.367Z,3.25
2023-05-14T19:41:19.601Z,2.98
2023-05-14T19:43:51.021Z,3.20
2023-05-14T19:46:22.577Z,3.47
2023-05-14T19:48:54.365Z,3.70
2023-05-14T19:51:26.036Z,2.75
2023-05-14T19:53:57.492Z,3.50
2023-05-14T19:56:29.048Z,2.87
2023-05-14T19:59:00.506Z,3.00
2023-05-14T20:01:32.363Z,3.33
2023-05-14T20:04:03.868Z,2.98
2023-05-14T20:06:34.946Z,2.75
2023-05-14T20:09:06.576Z,4.35
2023-05-14T20:11:38.049Z,3.62
2023-05-14T20:14:09.677Z,5.17
2023-05-14T20:16:41.873Z,3.12
2023-05-14T20:19:14.170Z,3.10
2023-05-14T20:21:45.693Z,3.05
2023-05-14T20:24:17.117Z,3.27
2023-05-14T20:26:48.596Z,3.27
2023-05-14T20:29:20.011Z,5.08
2023-05-14T20:31:51.669Z,5.12
2023-05-14T20:34:23.164Z,7.60
2023-05-14T20:36:54.741Z,7.50
2023-05-14T20:39:26.320Z,8.45
2023-05-14T20:41:57.836Z,6.80
2023-05-14T20:44:29.402Z,7.10
2023-05-14T20:47:01.059Z,6.65
2023-05-14T20:49:32.632Z,6.67
2023-05-14T20:52:04.319Z,5.65
2023-05-14T20:54:35.727Z,7.33
2023-05-14T20:57:07.594Z,6.83
2023-05-14T20:59:39.225Z,6.28
2023-05-14T21:02:11.098Z,6.25
2023-05-14T21:04:42.869Z,6.37
2023-05-14T21:07:14.424Z,5.10
2023-05-14T21:09:47.503Z,5.47
2023-05-14T21:12:18.970Z,6.05
2023-05-14T21:14:50.657Z,5.03
2023-05-14T21:17:22.275Z,4.58
2023-05-14T21:19:53.902Z,5.80
2023-05-14T21:22:25.573Z,5.22
2023-05-14T21:24:57.842Z,4.15
2023-05-14T21:27:29.447Z,4.70
2023-05-14T21:30:00.988Z,3.75
2023-05-14T21:32:33.432Z,3.52
2023-05-14T21:35:05.375Z,2.70
2023-05-14T21:37:38.458Z,2.35
2023-05-14T21:40:12.746Z,3.42
2023-05-14T21:42:44.190Z,2.37
2023-05-14T21:45:15.752Z,2.72
2023-05-14T21:47:47.249Z,3.25
2023-05-14T21:50:19.089Z,3.70
2023-05-14T21:52:50.504Z,2.30
2023-05-14T21:55:22.368Z,2.95
2023-05-14T21:57:54.219Z,2.40
2023-05-14T22:00:25.776Z,2.92
2023-05-14T22:02:57.196Z,2.65
2023-05-14T22:05:28.822Z,3.15
2023-05-14T22:08:00.521Z,3.83
2023-05-14T22:10:32.508Z,1.80
2023-05-14T22:13:03.928Z,1.17
2023-05-14T22:15:35.583Z,0.70
2023-05-14T22:18:07.291Z,1.07
2023-05-14T22:20:38.733Z,2.05
2023-05-14T22:23:10.160Z,1.47
2023-05-14T22:25:41.635Z,1.20
2023-05-14T22:28:13.058Z,1.40
2023-05-14T22:30:44.534Z,1.32
2023-05-14T22:33:16.536Z,1.50
2023-05-14T22:35:48.241Z,1.25
2023-05-14T22:38:20.370Z,1.42
2023-05-14T22:40:51.905Z,3.30
2023-05-14T22:43:23.307Z,2.67
2023-05-14T22:46:01.995Z,3.17
2023-05-14T22:48:33.433Z,3.08
2023-05-14T22:51:04.975Z,3.42
2023-05-14T22:53:40.715Z,3.70
2023-05-14T22:56:12.225Z,3.37
2023-05-14T22:58:43.711Z,2.15
2023-05-14T23:01:15.296Z,2.40
2023-05-14T23:03:46.730Z,1.30
2023-05-14T23:06:18.270Z,2.55
2023-05-14T23:08:50.042Z,1.45
2023-05-14T23:11:22.173Z,1.22
2023-05-14T23:13:53.646Z,1.82
2023-05-14T23:16:25.162Z,1.25
2023-05-14T23:18:56.617Z,1.15
2023-05-14T23:21:28.419Z,1.35
2023-05-14T23:23:59.845Z,1.55
2023-05-14T23:26:31.327Z,1.60
2023-05-14T23:29:02.794Z,1.30
2023-05-14T23:31:34.442Z,2.17
2023-05-14T23:34:05.893Z,1.95
2023-05-14T23:36:48.195Z,1.95
2023-05-14T23:39:19.875Z,2.22
2023-05-14T23:41:51.848Z,2.75
2023-05-14T23:44:23.690Z,2.87
2023-05-14T23:46:56.125Z,4.30
2023-05-14T23:49:27.960Z,3.72
2023-05-14T23:51:59.358Z,3.10
2023-05-14T23:54:30.840Z,3.30
2023-05-14T23:57:03.851Z,3.50
2023-05-14T23:59:35.325Z,3.30
